createdAt,value
2023-01-09T00:00:12.019Z,8.90
2023-01-09T00:02:40.660Z,8.80
2023-01-09T00:05:08.553Z,8.80
2023-01-09T00:07:35.394Z,8.80
2023-01-09T00:10:02.122Z,8.80
2023-01-09T00:12:29.234Z,8.80
2023-01-09T00:14:56.023Z,8.70
2023-01-09T00:17:22.761Z,8.70
2023-01-09T00:19:49.633Z,8.70
2023-01-09T00:22:16.569Z,8.70
2023-01-09T00:24:43.175Z,8.60
2023-01-09T00:27:10.850Z,8.70
2023-01-09T00:29:37.658Z,8.60
2023-01-09T00:32:04.518Z,8.60
2023-01-09T00:34:31.293Z,8.60
2023-01-09T00:36:58.142Z,8.60
2023-01-09T00:39:24.912Z,8.60
2023-01-09T00:41:56.313Z,8.60
2023-01-09T00:44:27.879Z,8.60
2023-01-09T00:47:05.225Z,8.60
2023-01-09T00:49:36.760Z,8.50
2023-01-09T00:52:06.405Z,8.60
2023-01-09T00:54:33.647Z,8.50
2023-01-09T00:57:00.944Z,8.50
2023-01-09T00:59:28.371Z,8.50
2023-01-09T01:01:55.449Z,8.60
2023-01-09T01:04:40.787Z,8.60
2023-01-09T01:07:26.103Z,8.50
2023-01-09T01:09:52.951Z,8.60
2023-01-09T01:12:19.748Z,8.50
2023-01-09T01:14:46.486Z,8.50
2023-01-09T01:17:13.340Z,8.50
2023-01-09T01:19:40.083Z,8.50
2023-01-09T01:22:06.845Z,8.50
2023-01-09T01:24:33.725Z,8.50
2023-01-09T01:27:00.510Z,8.50
2023-01-09T01:29:27.801Z,8.50
2023-01-09T01:31:54.840Z,8.50
2023-01-09T01:34:21.475Z,8.60
2023-01-09T01:36:48.290Z,8.60
2023-01-09T01:39:15.916Z,8.60
2023-01-09T01:41:42.689Z,8.60
2023-01-09T01:44:47.077Z,8.70
2023-01-09T01:47:15.552Z,8.60
2023-01-09T01:49:42.347Z,8.70
2023-01-09T01:52:09.282Z,8.70
2023-01-09T01:54:36.270Z,8.70
2023-01-09T01:57:05.813Z,8.80
2023-01-09T01:59:50.991Z,8.80
2023-01-09T02:02:22.344Z,8.80
2023-01-09T02:04:52.113Z,8.80
2023-01-09T02:07:19.179Z,8.90
2023-01-09T02:09:46.206Z,8.90
2023-01-09T02:12:20.451Z,8.80
2023-01-09T02:14:48.699Z,8.80
2023-01-09T02:17:34.251Z,8.80
2023-01-09T02:20:31.966Z,8.70
2023-01-09T02:23:26.099Z,8.80
2023-01-09T02:26:11.493Z,8.70
2023-01-09T02:29:12.339Z,8.80
2023-01-09T02:31:52.024Z,8.70
2023-01-09T02:34:37.438Z,8.70
2023-01-09T02:37:16.282Z,8.60
2023-01-09T02:40:03.032Z,8.70
2023-01-09T02:42:31.339Z,8.70
2023-01-09T02:44:58.212Z,8.60
2023-01-09T02:47:24.822Z,8.60
2023-01-09T02:49:53.233Z,8.60
2023-01-09T02:52:47.939Z,8.50
2023-01-09T02:55:34.112Z,8.40
2023-01-09T02:58:21.282Z,8.40
2023-01-09T03:01:02.168Z,8.40
2023-01-09T03:03:39.408Z,8.30
2023-01-09T03:06:15.101Z,8.30
2023-01-09T03:08:46.348Z,8.30
2023-01-09T03:11:13.225Z,8.40
2023-01-09T03:13:42.749Z,8.30
2023-01-09T03:16:13.524Z,8.30
2023-01-09T03:18:42.215Z,8.20
2023-01-09T03:21:11.398Z,8.20
2023-01-09T03:23:55.568Z,8.20
2023-01-09T03:26:22.892Z,8.30
2023-01-09T03:28:50.700Z,8.30
2023-01-09T03:31:17.766Z,8.20
2023-01-09T03:33:44.914Z,8.20
2023-01-09T03:36:13.360Z,8.20
2023-01-09T03:38:40.660Z,8.30
2023-01-09T03:41:08.058Z,8.30
2023-01-09T03:43:35.580Z,8.20
2023-01-09T03:46:04.393Z,8.20
2023-01-09T03:48:31.174Z,8.20
2023-01-09T03:50:58.277Z,8.20
2023-01-09T03:53:27.836Z,8.20
2023-01-09T03:55:56.888Z,8.20
2023-01-09T03:58:24.524Z,8.20
2023-01-09T04:00:52.475Z,8.10
2023-01-09T04:03:20.715Z,8.10
2023-01-09T04:05:51.855Z,8.10
2023-01-09T04:08:19.405Z,8.10
2023-01-09T04:10:47.353Z,8.10
2023-01-09T04:13:14.149Z,8.10
2023-01-09T04:15:41.014Z,8.10
2023-01-09T04:18:08.082Z,8.10
2023-01-09T04:20:34.980Z,8.10
2023-01-09T04:23:02.400Z,8.10
2023-01-09T04:25:29.225Z,8.10
2023-01-09T04:27:55.994Z,8.10
2023-01-09T04:30:22.711Z,8.10
2023-01-09T04:32:49.585Z,8.10
2023-01-09T04:35:16.305Z,8.10
2023-01-09T04:37:43.122Z,8.10
2023-01-09T04:40:10.632Z,8.10
2023-01-09T04:42:38.375Z,8.10
2023-01-09T04:45:06.665Z,8.20
2023-01-09T04:47:33.589Z,8.20
2023-01-09T04:50:01.291Z,8.10
2023-01-09T04:52:28.568Z,8.20
2023-01-09T04:54:55.266Z,8.10
2023-01-09T04:57:22.303Z,8.10
2023-01-09T04:59:49.024Z,8.10
2023-01-09T05:02:16.868Z,8.10
2023-01-09T05:04:43.640Z,8.10
2023-01-09T05:07:10.378Z,8.00
2023-01-09T05:09:38.269Z,8.00
2023-01-09T05:12:05.404Z,8.00
2023-01-09T05:14:32.276Z,8.00
2023-01-09T05:16:59.013Z,8.00
2023-01-09T05:19:25.745Z,8.00
2023-01-09T05:21:52.453Z,8.00
2023-01-09T05:24:19.347Z,8.00
2023-01-09T05:26:46.069Z,7.90
2023-01-09T05:29:12.960Z,7.90
2023-01-09T05:31:39.852Z,7.90
2023-01-09T05:34:06.692Z,7.90
2023-01-09T05:36:33.550Z,7.80
2023-01-09T05:39:02.716Z,7.80
2023-01-09T05:41:29.553Z,7.80
2023-01-09T05:44:21.367Z,7.80
2023-01-09T05:46:48.088Z,7.80
2023-01-09T05:49:14.966Z,7.80
2023-01-09T05:51:41.645Z,7.70
2023-01-09T05:54:08.519Z,7.70
2023-01-09T05:56:35.315Z,7.60
2023-01-09T05:59:02.093Z,7.60
2023-01-09T06:01:29.036Z,7.60
2023-01-09T06:03:55.729Z,7.60
2023-01-09T06:06:24.132Z,7.60
2023-01-09T06:08:50.889Z,7.50
2023-01-09T06:11:17.591Z,7.50
2023-01-09T06:13:44.307Z,7.40
2023-01-09T06:16:11.045Z,7.40
2023-01-09T06:18:37.808Z,7.40
2023-01-09T06:21:04.712Z,7.50
2023-01-09T06:23:31.377Z,7.50
2023-01-09T06:25:58.189Z,7.50
2023-01-09T06:28:24.997Z,7.50
2023-01-09T06:30:52.695Z,7.60
2023-01-09T06:33:20.040Z,7.60
2023-01-09T06:35:46.841Z,7.60
2023-01-09T06:38:13.569Z,7.60
2023-01-09T06:40:40.342Z,7.50
2023-01-09T06:43:07.080Z,7.50
2023-01-09T06:45:33.992Z,7.50
2023-01-09T06:48:00.847Z,7.40
2023-01-09T06:50:27.782Z,7.40
2023-01-09T06:52:54.513Z,7.40
2023-01-09T06:55:21.272Z,7.50
2023-01-09T06:57:48.048Z,7.50
2023-01-09T07:00:15.173Z,7.50
2023-01-09T07:02:41.934Z,7.50
2023-01-09T07:05:08.977Z,7.50
2023-01-09T07:07:35.812Z,7.50
2023-01-09T07:10:02.595Z,7.50
2023-01-09T07:12:29.381Z,7.50
2023-01-09T07:14:57.593Z,7.50
2023-01-09T07:17:24.525Z,7.50
2023-01-09T07:19:51.386Z,7.40
2023-01-09T07:22:18.967Z,7.50
2023-01-09T07:24:45.860Z,7.50
2023-01-09T07:27:12.641Z,7.50
2023-01-09T07:29:39.396Z,7.50
2023-01-09T07:32:06.234Z,7.50
2023-01-09T07:34:33.073Z,7.50
2023-01-09T07:37:01.032Z,7.50
2023-01-09T07:39:27.773Z,7.50
2023-01-09T07:41:54.545Z,7.50
2023-01-09T07:44:21.403Z,7.60
2023-01-09T07:46:48.209Z,7.50
2023-01-09T07:49:15.009Z,7.50
2023-01-09T07:51:43.340Z,7.60
2023-01-09T07:54:11.213Z,7.60
2023-01-09T07:56:38.464Z,7.60
2023-01-09T07:59:05.363Z,7.60
2023-01-09T08:01:32.485Z,7.60
2023-01-09T08:03:59.278Z,7.70
2023-01-09T08:06:26.208Z,7.80
2023-01-09T08:08:52.898Z,7.90
2023-01-09T08:11:19.629Z,7.90
2023-01-09T08:13:46.444Z,8.00
2023-01-09T08:16:13.162Z,8.10
2023-01-09T08:18:39.925Z,8.10
2023-01-09T08:21:06.744Z,8.00
2023-01-09T08:23:33.567Z,8.00
2023-01-09T08:26:00.337Z,8.10
2023-01-09T08:28:27.040Z,8.00
2023-01-09T08:30:53.771Z,8.00
2023-01-09T08:33:20.532Z,8.00
2023-01-09T08:35:47.413Z,8.10
2023-01-09T08:38:14.257Z,8.10
2023-01-09T08:40:40.969Z,8.20
2023-01-09T08:43:27.627Z,8.30
2023-01-09T08:46:12.874Z,8.50
2023-01-09T08:48:39.597Z,8.60
2023-01-09T08:51:06.469Z,8.60
2023-01-09T08:53:33.237Z,8.50
2023-01-09T08:56:00.111Z,8.30
2023-01-09T08:58:26.809Z,8.20
2023-01-09T09:00:53.581Z,8.20
2023-01-09T09:03:21.642Z,8.10
2023-01-09T09:05:48.345Z,8.00
2023-01-09T09:08:16.413Z,8.00
2023-01-09T09:10:43.353Z,8.00
2023-01-09T09:13:09.971Z,7.90
2023-01-09T09:15:38.119Z,7.90
2023-01-09T09:18:07.088Z,7.90
2023-01-09T09:20:36.657Z,8.00
2023-01-09T09:23:05.399Z,7.90
2023-01-09T09:25:32.427Z,8.00
2023-01-09T09:28:01.133Z,7.90
2023-01-09T09:30:28.275Z,7.90
2023-01-09T09:32:55.011Z,8.10
2023-01-09T09:35:22.547Z,8.20
2023-01-09T09:38:01.568Z,8.20
2023-01-09T09:40:47.088Z,8.20
2023-01-09T09:43:38.523Z,8.20
2023-01-09T09:46:31.837Z,8.10
2023-01-09T09:49:07.198Z,8.10
2023-01-09T09:52:14.866Z,8.10
2023-01-09T09:54:48.304Z,8.00
2023-01-09T09:57:21.804Z,7.90
2023-01-09T09:59:51.356Z,7.80
2023-01-09T10:02:38.415Z,7.80
2023-01-09T10:05:14.035Z,7.80
2023-01-09T10:07:49.842Z,8.00
2023-01-09T10:10:42.108Z,8.10
2023-01-09T10:13:31.800Z,8.10
2023-01-09T10:16:36.667Z,8.10
2023-01-09T10:19:36.022Z,8.10
2023-01-09T10:22:15.185Z,8.00
2023-01-09T10:25:16.088Z,7.90
2023-01-09T10:28:04.784Z,7.90
2023-01-09T10:30:37.484Z,8.20
2023-01-09T10:33:35.336Z,8.60
2023-01-09T10:36:52.845Z,8.60
2023-01-09T10:39:35.883Z,8.50
2023-01-09T10:42:16.377Z,8.50
2023-01-09T10:44:53.908Z,8.50
2023-01-09T10:47:24.081Z,8.60
2023-01-09T10:49:52.547Z,8.60
2023-01-09T10:52:25.144Z,8.60
2023-01-09T10:55:03.481Z,8.60
2023-01-09T10:57:42.039Z,8.60
2023-01-09T11:00:17.017Z,8.70
2023-01-09T11:02:44.102Z,8.70
2023-01-09T11:05:18.979Z,8.70
2023-01-09T11:07:50.381Z,8.70
2023-01-09T11:10:19.780Z,8.70
2023-01-09T11:12:47.622Z,8.60
2023-01-09T11:15:19.204Z,8.60
2023-01-09T11:17:47.589Z,8.60
2023-01-09T11:20:19.568Z,8.60
2023-01-09T11:22:49.045Z,8.60
2023-01-09T11:25:20.824Z,8.70
2023-01-09T11:28:08.170Z,8.70
2023-01-09T11:30:53.641Z,8.80
2023-01-09T11:33:24.527Z,8.70
2023-01-09T11:36:05.960Z,8.70
2023-01-09T11:38:52.165Z,8.50
2023-01-09T11:41:29.375Z,8.60
2023-01-09T11:43:59.489Z,8.60
2023-01-09T11:46:45.805Z,8.70
2023-01-09T11:49:12.841Z,8.70
2023-01-09T11:51:39.523Z,9.00
2023-01-09T11:54:22.197Z,9.30
2023-01-09T11:56:50.116Z,10.30
2023-01-09T11:59:22.906Z,10.30
2023-01-09T12:01:52.697Z,10.30
2023-01-09T12:04:31.541Z,10.10
2023-01-09T12:07:36.629Z,10.10
2023-01-09T12:10:18.555Z,10.10
2023-01-09T12:13:12.770Z,10.00
2023-01-09T12:16:15.584Z,9.60
2023-01-09T12:19:19.472Z,9.50
2023-01-09T12:21:57.676Z,9.40
2023-01-09T12:24:59.339Z,9.40
2023-01-09T12:27:46.495Z,9.50
2023-01-09T12:30:31.302Z,9.70
2023-01-09T12:33:07.058Z,10.00
2023-01-09T12:35:41.480Z,9.70
2023-01-09T12:38:31.221Z,9.70
2023-01-09T12:41:14.074Z,9.80
2023-01-09T12:43:52.818Z,9.60
2023-01-09T12:46:24.168Z,9.40
2023-01-09T12:49:00.101Z,9.20
2023-01-09T12:52:01.090Z,9.10
2023-01-09T12:54:43.737Z,9.00
2023-01-09T12:57:22.028Z,9.00
2023-01-09T13:00:00.189Z,9.00
2023-01-09T13:02:27.726Z,9.00
2023-01-09T13:05:16.470Z,9.00
2023-01-09T13:07:48.568Z,8.90
2023-01-09T13:10:35.528Z,8.90
2023-01-09T13:13:19.819Z,9.00
2023-01-09T13:15:54.736Z,9.10
2023-01-09T13:18:24.892Z,9.10
2023-01-09T13:20:56.454Z,9.20
2023-01-09T13:23:34.118Z,9.30
2023-01-09T13:26:04.250Z,9.40
2023-01-09T13:28:40.970Z,9.40
2023-01-09T13:31:25.819Z,9.40
2023-01-09T13:34:02.945Z,9.50
2023-01-09T13:36:39.779Z,9.60
2023-01-09T13:39:06.902Z,9.60
2023-01-09T13:42:04.261Z,9.60
2023-01-09T13:44:32.325Z,9.60
2023-01-09T13:47:03.380Z,9.60
2023-01-09T13:49:34.048Z,9.70
2023-01-09T13:52:06.155Z,9.70
2023-01-09T13:54:58.109Z,9.60
2023-01-09T13:57:34.947Z,9.50
2023-01-09T14:00:07.724Z,9.30
2023-01-09T14:02:38.581Z,9.30
2023-01-09T14:05:11.222Z,9.10
2023-01-09T14:07:42.849Z,9.20
2023-01-09T14:10:30.988Z,9.10
2023-01-09T14:12:57.924Z,9.10
2023-01-09T14:15:39.890Z,9.10
2023-01-09T14:18:25.161Z,9.00
2023-01-09T14:21:04.093Z,9.00
2023-01-09T14:23:50.845Z,8.80
2023-01-09T14:26:21.090Z,8.80
2023-01-09T14:28:47.934Z,8.80
2023-01-09T14:31:32.817Z,8.80
2023-01-09T14:34:34.364Z,8.70
2023-01-09T14:37:02.336Z,8.80
2023-01-09T14:39:32.390Z,8.80
2023-01-09T14:42:09.062Z,8.80
2023-01-09T14:44:45.588Z,8.90
2023-01-09T14:47:28.345Z,9.20
2023-01-09T14:50:16.985Z,10.20
2023-01-09T14:52:54.512Z,11.60
2023-01-09T14:55:26.837Z,12.10
2023-01-09T14:57:54.752Z,12.80
2023-01-09T15:00:23.247Z,13.30
2023-01-09T15:02:52.832Z,12.20
2023-01-09T15:05:22.668Z,11.00
2023-01-09T15:07:53.637Z,10.20
2023-01-09T15:10:24.908Z,9.70
2023-01-09T15:12:54.620Z,9.40
2023-01-09T15:15:22.799Z,9.20
2023-01-09T15:18:04.855Z,9.00
2023-01-09T15:20:33.236Z,8.80
2023-01-09T15:23:00.841Z,8.60
2023-01-09T15:25:38.151Z,8.50
2023-01-09T15:28:26.992Z,8.50
2023-01-09T15:31:11.695Z,8.50
2023-01-09T15:33:43.163Z,8.30
2023-01-09T15:36:20.840Z,8.30
2023-01-09T15:38:49.163Z,8.30
2023-01-09T15:41:42.527Z,8.30
2023-01-09T15:44:15.238Z,8.20
2023-01-09T15:46:43.766Z,8.10
2023-01-09T15:49:12.930Z,8.20
2023-01-09T15:51:42.657Z,8.10
2023-01-09T15:54:15.132Z,8.10
2023-01-09T15:56:44.576Z,8.10
2023-01-09T15:59:28.595Z,8.10
2023-01-09T16:02:24.779Z,8.10
2023-01-09T16:04:54.562Z,8.10
2023-01-09T16:07:21.524Z,8.00
2023-01-09T16:09:48.790Z,8.10
2023-01-09T16:12:21.502Z,8.10
2023-01-09T16:14:54.004Z,8.10
2023-01-09T16:17:23.948Z,8.00
2023-01-09T16:19:51.786Z,8.00
2023-01-09T16:22:21.298Z,8.00
2023-01-09T16:24:53.431Z,8.00
2023-01-09T16:27:30.372Z,8.00
2023-01-09T16:30:08.645Z,8.00
2023-01-09T16:32:46.186Z,7.90
2023-01-09T16:35:19.441Z,7.80
2023-01-09T16:37:46.926Z,7.80
2023-01-09T16:40:16.917Z,7.80
2023-01-09T16:43:00.928Z,7.80
2023-01-09T16:45:32.577Z,7.80
2023-01-09T16:48:00.416Z,7.70
2023-01-09T16:50:27.310Z,7.70
2023-01-09T16:52:55.838Z,7.70
2023-01-09T16:55:22.697Z,7.70
2023-01-09T16:57:49.819Z,7.70
2023-01-09T17:00:19.370Z,7.70
2023-01-09T17:02:46.301Z,7.70
2023-01-09T17:05:13.039Z,7.70
2023-01-09T17:07:39.768Z,7.70
2023-01-09T17:10:07.099Z,7.70
2023-01-09T17:12:33.798Z,7.70
2023-01-09T17:15:02.491Z,7.60
2023-01-09T17:17:29.296Z,7.50
2023-01-09T17:19:56.080Z,7.50
2023-01-09T17:22:22.833Z,7.50
2023-01-09T17:25:09.000Z,7.40
2023-01-09T17:27:56.475Z,7.40
2023-01-09T17:30:23.382Z,7.30
2023-01-09T17:32:50.281Z,7.30
2023-01-09T17:35:17.429Z,7.30
2023-01-09T17:37:44.746Z,7.30
2023-01-09T17:40:23.280Z,7.20
2023-01-09T17:42:50.071Z,7.20
2023-01-09T17:45:20.553Z,7.20
2023-01-09T17:47:51.234Z,7.10
2023-01-09T17:50:21.023Z,7.10
2023-01-09T17:52:49.848Z,7.00
2023-01-09T17:55:24.311Z,7.00
2023-01-09T17:58:01.298Z,7.00
2023-01-09T18:00:32.651Z,7.00
2023-01-09T18:02:59.458Z,7.00
2023-01-09T18:05:27.805Z,6.90
2023-01-09T18:07:55.992Z,6.90
2023-01-09T18:10:24.848Z,6.90
2023-01-09T18:12:54.329Z,6.90
2023-01-09T18:15:24.285Z,6.90
2023-01-09T18:17:51.865Z,6.90
2023-01-09T18:20:19.449Z,6.80
2023-01-09T18:22:50.156Z,6.90
2023-01-09T18:25:20.350Z,6.90
2023-01-09T18:27:47.361Z,6.90
2023-01-09T18:30:14.134Z,6.90
2023-01-09T18:32:40.868Z,6.90
2023-01-09T18:35:08.892Z,6.90
2023-01-09T18:37:36.725Z,6.80
2023-01-09T18:40:04.683Z,6.80
2023-01-09T18:42:31.469Z,6.80
2023-01-09T18:44:58.305Z,6.80
2023-01-09T18:47:25.219Z,6.70
2023-01-09T18:49:52.281Z,6.70
2023-01-09T18:52:19.426Z,6.70
2023-01-09T18:54:46.222Z,6.70
2023-01-09T18:57:13.108Z,6.70
2023-01-09T18:59:40.001Z,6.60
2023-01-09T19:02:08.289Z,6.60
2023-01-09T19:04:35.065Z,6.60
2023-01-09T19:07:01.867Z,6.60
2023-01-09T19:09:28.990Z,6.50
2023-01-09T19:11:56.099Z,6.50
2023-01-09T19:14:22.995Z,6.50
2023-01-09T19:16:50.386Z,6.50
2023-01-09T19:19:17.390Z,6.40
2023-01-09T19:21:45.551Z,6.40
2023-01-09T19:24:12.832Z,6.40
2023-01-09T19:26:39.522Z,6.30
2023-01-09T19:29:07.148Z,6.20
2023-01-09T19:31:35.507Z,6.30
2023-01-09T19:34:02.544Z,6.30
2023-01-09T19:36:29.381Z,6.20
2023-01-09T19:39:00.602Z,6.10
2023-01-09T19:41:28.026Z,6.20
2023-01-09T19:43:54.796Z,6.20
2023-01-09T19:46:25.960Z,6.10
2023-01-09T19:48:53.507Z,6.10
2023-01-09T19:51:21.822Z,6.00
2023-01-09T19:56:31.258Z,5.90
2023-01-09T19:59:00.973Z,5.90
2023-01-09T20:01:30.416Z,5.80
2023-01-09T20:04:02.617Z,5.80
2023-01-09T20:06:30.700Z,5.80
2023-01-09T20:08:59.559Z,5.70
2023-01-09T20:11:28.826Z,5.70
2023-01-09T20:13:56.229Z,5.70
2023-01-09T20:16:28.608Z,5.70
2023-01-09T20:18:57.825Z,5.70
2023-01-09T20:21:26.540Z,5.80
2023-01-09T20:23:56.051Z,5.80
2023-01-09T20:26:23.658Z,5.70
2023-01-09T20:28:50.463Z,5.80
2023-01-09T20:31:19.189Z,5.80
2023-01-09T20:33:49.773Z,5.90
2023-01-09T20:36:16.709Z,6.00
2023-01-09T20:38:43.526Z,5.90
2023-01-09T20:41:22.606Z,5.90
2023-01-09T20:43:55.554Z,5.90
2023-01-09T20:46:24.322Z,5.90
2023-01-09T20:48:51.346Z,6.00
2023-01-09T20:51:18.136Z,6.00
2023-01-09T20:53:46.387Z,6.00
2023-01-09T20:56:13.457Z,5.90
2023-01-09T20:58:40.885Z,5.90
2023-01-09T21:01:09.821Z,5.90
2023-01-09T21:03:36.840Z,5.80
2023-01-09T21:06:05.556Z,5.80
2023-01-09T21:08:32.424Z,5.80
2023-01-09T21:10:59.732Z,5.80
2023-01-09T21:13:27.217Z,5.80
2023-01-09T21:15:54.211Z,5.80
2023-01-09T21:18:21.002Z,5.90
2023-01-09T21:20:47.838Z,5.80
2023-01-09T21:23:14.596Z,5.90
2023-01-09T21:25:41.815Z,5.90
2023-01-09T21:28:14.877Z,6.00
2023-01-09T21:30:42.239Z,6.00
2023-01-09T21:33:08.965Z,6.00
2023-01-09T21:35:36.275Z,6.10
2023-01-09T21:38:03.084Z,6.10
2023-01-09T21:40:29.801Z,6.10
2023-01-09T21:43:15.170Z,6.20
2023-01-09T21:46:00.439Z,6.10
2023-01-09T21:48:27.169Z,6.10
2023-01-09T21:50:53.896Z,6.10
2023-01-09T21:53:20.595Z,6.20
2023-01-09T21:55:47.239Z,6.20
2023-01-09T21:58:14.081Z,6.20
2023-01-09T22:00:41.121Z,6.20
2023-01-09T22:03:09.262Z,6.30
2023-01-09T22:05:37.089Z,6.20
2023-01-09T22:08:03.841Z,6.30
2023-01-09T22:10:30.608Z,6.30
2023-01-09T22:13:17.570Z,6.30
2023-01-09T22:15:46.067Z,6.30
2023-01-09T22:18:12.794Z,6.30
2023-01-09T22:20:39.655Z,6.30
2023-01-09T22:23:06.375Z,6.30
2023-01-09T22:25:37.131Z,6.30
2023-01-09T22:28:04.702Z,6.30
2023-01-09T22:30:31.600Z,6.20
2023-01-09T22:33:00.460Z,6.20
2023-01-09T22:35:27.212Z,6.20
2023-01-09T22:37:53.990Z,6.20
2023-01-09T22:40:20.785Z,6.20
2023-01-09T22:42:47.575Z,6.20
2023-01-09T22:45:14.327Z,6.20
2023-01-09T22:47:41.038Z,6.20
2023-01-09T22:50:08.694Z,6.20
2023-01-09T22:52:35.553Z,6.00
2023-01-09T22:55:02.321Z,5.90
2023-01-09T22:57:29.093Z,5.90
2023-01-09T22:59:55.967Z,5.90
2023-01-09T23:02:22.967Z,5.80
2023-01-09T23:04:49.689Z,5.70
2023-01-09T23:07:16.440Z,5.70
2023-01-09T23:09:43.189Z,5.60
2023-01-09T23:12:10.198Z,5.60
2023-01-09T23:14:38.164Z,5.50
2023-01-09T23:17:06.624Z,5.50
2023-01-09T23:19:33.731Z,5.50
2023-01-09T23:22:01.703Z,5.60
2023-01-09T23:24:29.375Z,5.60
2023-01-09T23:26:56.832Z,5.60
2023-01-09T23:29:25.135Z,5.70
2023-01-09T23:31:53.635Z,5.70
2023-01-09T23:34:25.562Z,5.80
2023-01-09T23:36:54.323Z,5.90
2023-01-09T23:39:21.206Z,6.00
2023-01-09T23:42:06.447Z,6.00
2023-01-09T23:44:33.244Z,6.00
2023-01-09T23:47:00.193Z,6.00
2023-01-09T23:49:26.978Z,6.00
2023-01-09T23:51:53.814Z,6.00
2023-01-09T23:54:20.981Z,6.00
2023-01-09T23:56:47.921Z,6.00
2023-01-09T23:59:14.916Z,5.90
